createdAt,value
2022-12-11T00:02:19.523Z,6.62
2022-12-11T00:04:51.896Z,6.47
2022-12-11T00:07:24.193Z,6.23
2022-12-11T00:09:58.133Z,6.20
2022-12-11T00:12:30.693Z,6.21
2022-12-11T00:15:03.031Z,6.19
2022-12-11T00:17:35.176Z,6.24
2022-12-11T00:20:09.348Z,6.21
2022-12-11T00:22:41.445Z,6.20
2022-12-11T00:25:13.785Z,6.15
2022-12-11T00:27:48.513Z,6.05
2022-12-11T00:30:20.809Z,6.09
2022-12-11T00:32:54.119Z,5.95
2022-12-11T00:35:26.521Z,5.93
2022-12-11T00:37:58.671Z,6.03
2022-12-11T00:40:30.802Z,5.95
2022-12-11T00:43:03.251Z,5.81
2022-12-11T00:45:38.994Z,5.85
2022-12-11T00:48:11.617Z,5.93
2022-12-11T00:50:44.128Z,6.02
2022-12-11T00:53:16.304Z,6.14
2022-12-11T00:55:48.428Z,6.09
2022-12-11T00:58:20.862Z,6.01
2022-12-11T01:00:53.392Z,6.17
2022-12-11T01:03:25.586Z,6.26
2022-12-11T01:05:58.091Z,6.31
2022-12-11T01:08:34.061Z,6.29
2022-12-11T01:11:12.705Z,6.27
2022-12-11T01:13:46.379Z,6.29
2022-12-11T01:16:18.972Z,6.28
2022-12-11T01:18:51.126Z,6.30
2022-12-11T01:21:23.285Z,6.24
2022-12-11T01:23:55.587Z,6.17
2022-12-11T01:26:27.691Z,6.09
2022-12-11T01:29:00.255Z,6.14
2022-12-11T01:31:32.562Z,6.20
2022-12-11T01:34:04.805Z,6.02
2022-12-11T01:36:36.985Z,5.95
2022-12-11T01:39:09.277Z,6.08
2022-12-11T01:41:41.438Z,6.20
2022-12-11T01:44:44.196Z,6.34
2022-12-11T01:47:16.895Z,6.19
2022-12-11T01:49:49.030Z,6.09
2022-12-11T01:52:23.688Z,5.99
2022-12-11T01:54:56.401Z,5.98
2022-12-11T01:57:28.627Z,5.99
2022-12-11T02:00:00.850Z,6.00
2022-12-11T02:02:34.335Z,6.03
2022-12-11T02:05:09.420Z,5.95
2022-12-11T02:07:45.825Z,5.93
2022-12-11T02:10:18.500Z,5.94
2022-12-11T02:13:00.725Z,5.88
2022-12-11T02:15:38.505Z,5.93
2022-12-11T02:18:21.472Z,6.08
2022-12-11T02:21:02.792Z,6.14
2022-12-11T02:23:53.989Z,6.23
2022-12-11T02:26:41.582Z,6.30
2022-12-11T02:29:19.355Z,6.23
2022-12-11T02:31:57.840Z,6.11
2022-12-11T02:34:35.352Z,5.99
2022-12-11T02:37:12.651Z,5.95
2022-12-11T02:39:47.285Z,5.92
2022-12-11T02:42:21.586Z,6.00
2022-12-11T02:44:55.370Z,6.10
2022-12-11T02:47:31.352Z,6.00
2022-12-11T02:50:08.656Z,6.01
2022-12-11T02:52:42.438Z,6.03
2022-12-11T02:55:16.824Z,6.15
2022-12-11T02:57:52.690Z,6.22
2022-12-11T03:00:25.516Z,6.34
2022-12-11T03:02:58.052Z,6.46
2022-12-11T03:05:31.019Z,6.15
2022-12-11T03:08:03.284Z,4.89
2022-12-11T03:10:35.780Z,3.65
2022-12-11T03:13:08.335Z,3.00
2022-12-11T03:15:56.449Z,3.49
2022-12-11T03:18:37.174Z,4.01
2022-12-11T03:21:15.933Z,4.43
2022-12-11T03:23:55.875Z,4.68
2022-12-11T03:26:28.166Z,4.83
2022-12-11T03:29:04.090Z,4.77
2022-12-11T03:31:44.053Z,4.53
2022-12-11T03:34:20.973Z,4.56
2022-12-11T03:36:55.145Z,4.53
2022-12-11T03:39:32.340Z,4.66
2022-12-11T03:42:10.658Z,5.17
2022-12-11T03:44:42.371Z,5.44
2022-12-11T03:47:19.509Z,5.31
2022-12-11T03:49:53.398Z,5.21
2022-12-11T03:52:27.632Z,5.07
2022-12-11T03:55:04.274Z,5.29
2022-12-11T03:57:38.838Z,5.41
2022-12-11T04:00:15.260Z,5.41
2022-12-11T04:03:12.969Z,5.32
2022-12-11T04:05:48.543Z,5.15
2022-12-11T04:08:21.935Z,5.09
2022-12-11T04:11:15.197Z,5.11
2022-12-11T04:14:07.883Z,5.15
2022-12-11T04:16:40.114Z,5.10
2022-12-11T04:19:30.167Z,5.12
2022-12-11T04:22:20.122Z,5.44
2022-12-11T04:24:53.552Z,5.49
2022-12-11T04:27:43.477Z,5.62
2022-12-11T04:30:18.711Z,5.70
2022-12-11T04:32:55.323Z,5.76
2022-12-11T04:35:27.548Z,5.89
2022-12-11T04:37:59.792Z,5.83
2022-12-11T04:40:32.002Z,5.73
2022-12-11T04:43:04.181Z,5.71
2022-12-11T04:45:36.839Z,5.74
2022-12-11T04:48:09.607Z,5.67
2022-12-11T04:50:41.718Z,5.27
2022-12-11T04:53:13.818Z,4.88
2022-12-11T04:55:46.008Z,4.78
2022-12-11T04:58:18.143Z,5.03
2022-12-11T05:00:50.361Z,5.11
2022-12-11T05:03:23.460Z,4.91
2022-12-11T05:05:56.422Z,4.83
2022-12-11T05:08:28.571Z,4.97
2022-12-11T05:11:02.098Z,5.26
2022-12-11T05:13:36.110Z,5.43
2022-12-11T05:16:10.017Z,5.45
2022-12-11T05:18:42.277Z,5.68
2022-12-11T05:21:16.261Z,5.67
2022-12-11T05:23:48.414Z,5.58
2022-12-11T05:26:21.664Z,5.76
2022-12-11T05:28:55.781Z,6.07
2022-12-11T05:31:29.388Z,6.33
2022-12-11T05:34:01.646Z,6.51
2022-12-11T05:36:35.193Z,6.30
2022-12-11T05:39:07.807Z,5.09
2022-12-11T05:41:40.301Z,3.82
2022-12-11T05:44:14.620Z,3.09
2022-12-11T05:46:46.836Z,3.47
2022-12-11T05:49:20.124Z,3.82
2022-12-11T05:51:52.548Z,3.96
2022-12-11T05:54:24.672Z,4.05
2022-12-11T05:56:56.788Z,4.66
2022-12-11T05:59:28.962Z,5.16
2022-12-11T06:02:01.233Z,5.54
2022-12-11T06:04:34.502Z,5.78
2022-12-11T06:07:06.768Z,5.73
2022-12-11T06:09:38.885Z,5.74
2022-12-11T06:12:11.090Z,5.78
2022-12-11T06:14:43.365Z,5.77
2022-12-11T06:17:15.695Z,5.70
2022-12-11T06:19:47.826Z,5.66
2022-12-11T06:22:20.019Z,5.37
2022-12-11T06:24:52.202Z,5.47
2022-12-11T06:27:24.549Z,5.62
2022-12-11T06:29:57.178Z,5.61
2022-12-11T06:32:29.769Z,5.58
2022-12-11T06:35:01.901Z,5.58
2022-12-11T06:37:34.075Z,5.63
2022-12-11T06:40:08.437Z,5.80
2022-12-11T06:42:40.583Z,5.72
2022-12-11T06:45:13.940Z,5.50
2022-12-11T06:47:46.030Z,5.44
2022-12-11T06:50:18.376Z,5.38
2022-12-11T06:52:50.567Z,5.51
2022-12-11T06:55:22.903Z,5.63
2022-12-11T06:57:55.348Z,5.77
2022-12-11T07:00:27.593Z,5.84
2022-12-11T07:02:59.754Z,5.64
2022-12-11T07:05:32.270Z,4.54
2022-12-11T07:08:04.541Z,3.39
2022-12-11T07:10:40.477Z,2.67
2022-12-11T07:13:12.588Z,3.04
2022-12-11T07:15:44.727Z,3.59
2022-12-11T07:18:16.956Z,4.06
2022-12-11T07:20:49.071Z,4.43
2022-12-11T07:23:21.378Z,4.71
2022-12-11T07:25:53.781Z,5.03
2022-12-11T07:28:26.337Z,5.08
2022-12-11T07:30:58.518Z,5.16
2022-12-11T07:33:30.659Z,5.25
2022-12-11T07:36:06.000Z,5.29
2022-12-11T07:38:38.636Z,5.46
2022-12-11T07:41:12.919Z,5.39
2022-12-11T07:43:45.554Z,5.25
2022-12-11T07:46:19.412Z,5.16
2022-12-11T07:48:52.589Z,5.06
2022-12-11T07:51:28.127Z,4.83
2022-12-11T07:54:02.255Z,4.65
2022-12-11T07:56:35.071Z,4.94
2022-12-11T07:59:08.440Z,5.29
2022-12-11T08:01:42.608Z,5.45
2022-12-11T08:04:16.042Z,5.53
2022-12-11T08:06:48.359Z,5.65
2022-12-11T08:09:22.768Z,5.58
2022-12-11T08:11:55.363Z,5.77
2022-12-11T08:14:30.525Z,5.96
2022-12-11T08:17:02.885Z,5.80
2022-12-11T08:19:35.398Z,4.86
2022-12-11T08:22:10.196Z,3.78
2022-12-11T08:24:42.419Z,2.97
2022-12-11T08:27:14.742Z,2.55
2022-12-11T08:29:47.674Z,3.02
2022-12-11T08:32:19.858Z,3.48
2022-12-11T08:34:53.961Z,3.76
2022-12-11T08:37:26.104Z,3.82
2022-12-11T08:39:58.518Z,3.86
2022-12-11T08:42:31.244Z,3.98
2022-12-11T08:45:03.835Z,4.04
2022-12-11T08:47:36.241Z,4.21
2022-12-11T08:50:09.584Z,4.54
2022-12-11T08:52:42.093Z,4.99
2022-12-11T08:55:14.467Z,5.38
2022-12-11T08:57:46.866Z,5.61
2022-12-11T09:00:20.163Z,5.69
2022-12-11T09:02:52.781Z,5.94
2022-12-11T09:05:25.189Z,5.86
2022-12-11T09:07:57.411Z,4.90
2022-12-11T09:10:30.392Z,3.87
2022-12-11T09:13:02.773Z,3.04
2022-12-11T09:15:36.183Z,2.56
2022-12-11T09:18:08.812Z,2.98
2022-12-11T09:20:41.466Z,3.64
2022-12-11T09:23:13.780Z,4.21
2022-12-11T09:25:46.126Z,4.54
2022-12-11T09:28:18.256Z,4.59
2022-12-11T09:30:50.803Z,4.57
2022-12-11T09:33:23.140Z,4.54
2022-12-11T09:36:01.865Z,4.68
2022-12-11T09:38:34.927Z,4.91
2022-12-11T09:41:36.688Z,4.85
2022-12-11T09:44:25.787Z,4.76
2022-12-11T09:46:58.777Z,4.97
2022-12-11T09:49:37.818Z,4.87
2022-12-11T09:52:16.786Z,4.77
2022-12-11T09:54:54.036Z,4.91
2022-12-11T09:57:45.882Z,4.84
2022-12-11T10:00:25.765Z,4.93
2022-12-11T10:03:15.713Z,5.32
2022-12-11T10:05:53.934Z,5.47
2022-12-11T10:08:33.120Z,5.66
2022-12-11T10:11:22.882Z,5.83
2022-12-11T10:14:03.267Z,5.62
2022-12-11T10:16:41.829Z,4.59
2022-12-11T10:19:16.519Z,3.56
2022-12-11T10:21:51.025Z,2.74
2022-12-11T10:25:07.755Z,2.40
2022-12-11T10:27:31.223Z,3.13
2022-12-11T10:30:16.003Z,3.71
2022-12-11T10:32:54.939Z,4.01
2022-12-11T10:35:32.575Z,4.49
2022-12-11T10:38:15.335Z,4.73
2022-12-11T10:40:54.564Z,5.01
2022-12-11T10:43:38.522Z,5.00
2022-12-11T10:46:19.417Z,4.99
2022-12-11T10:48:54.591Z,5.10
2022-12-11T10:51:35.387Z,5.24
2022-12-11T10:54:18.553Z,5.43
2022-12-11T10:56:52.096Z,5.53
2022-12-11T10:59:32.021Z,5.31
2022-12-11T11:02:06.105Z,4.43
2022-12-11T11:04:40.495Z,3.58
2022-12-11T11:07:20.086Z,2.95
2022-12-11T11:09:54.562Z,2.69
2022-12-11T11:12:29.098Z,3.31
2022-12-11T11:15:09.278Z,3.96
2022-12-11T11:17:54.622Z,4.34
2022-12-11T11:20:29.954Z,4.89
2022-12-11T11:23:05.018Z,5.61
2022-12-11T11:25:37.359Z,6.01
2022-12-11T11:28:19.724Z,5.84
2022-12-11T11:31:03.836Z,4.89
2022-12-11T11:33:39.174Z,3.85
2022-12-11T11:36:23.883Z,3.10
2022-12-11T11:39:10.074Z,2.69
2022-12-11T11:41:50.982Z,3.19
2022-12-11T11:44:30.650Z,4.13
2022-12-11T11:47:08.380Z,5.08
2022-12-11T11:49:53.007Z,5.69
2022-12-11T11:52:32.184Z,6.17
2022-12-11T11:55:10.960Z,6.09
2022-12-11T11:57:48.027Z,4.94
2022-12-11T12:00:27.598Z,3.90
2022-12-11T12:03:10.339Z,3.13
2022-12-11T12:05:51.437Z,2.56
2022-12-11T12:08:36.375Z,2.36
2022-12-11T12:11:20.424Z,3.14
2022-12-11T12:14:22.466Z,4.11
2022-12-11T12:17:07.756Z,4.76
2022-12-11T12:19:51.516Z,4.95
2022-12-11T12:22:45.059Z,5.42
2022-12-11T12:25:25.414Z,5.49
2022-12-11T12:28:06.584Z,4.41
2022-12-11T12:30:50.734Z,3.40
2022-12-11T12:33:32.554Z,2.67
2022-12-11T12:36:16.632Z,2.32
2022-12-11T12:38:56.581Z,3.09
2022-12-11T12:41:41.127Z,4.07
2022-12-11T12:44:18.361Z,5.09
2022-12-11T12:47:12.546Z,5.65
2022-12-11T12:49:46.976Z,5.72
2022-12-11T12:52:22.292Z,4.50
2022-12-11T12:55:18.907Z,3.32
2022-12-11T12:57:53.906Z,2.37
2022-12-11T13:00:35.762Z,1.77
2022-12-11T13:03:20.365Z,1.54
2022-12-11T13:06:02.388Z,2.09
2022-12-11T13:08:41.221Z,2.50
2022-12-11T13:11:16.774Z,2.71
2022-12-11T13:13:54.957Z,2.80
2022-12-11T13:16:39.261Z,2.91
2022-12-11T13:19:32.089Z,3.03
2022-12-11T13:22:21.405Z,3.03
2022-12-11T13:25:02.108Z,3.31
2022-12-11T13:27:43.674Z,3.39
2022-12-11T13:30:28.540Z,3.61
2022-12-11T13:33:07.048Z,3.63
2022-12-11T13:35:40.434Z,3.79
2022-12-11T13:38:20.945Z,4.09
2022-12-11T13:40:57.784Z,4.32
2022-12-11T13:43:32.387Z,4.06
2022-12-11T13:46:09.461Z,3.04
2022-12-11T13:48:47.854Z,2.07
2022-12-11T13:51:20.293Z,1.26
2022-12-11T13:54:03.116Z,0.60
2022-12-11T13:56:36.389Z,0.38
2022-12-11T13:59:19.665Z,0.97
2022-12-11T14:01:54.267Z,1.52
2022-12-11T14:04:28.427Z,1.79
2022-12-11T14:07:02.557Z,1.87
2022-12-11T14:09:34.988Z,1.87
2022-12-11T14:12:08.118Z,1.79
2022-12-11T14:14:47.217Z,1.78
2022-12-11T14:17:26.249Z,2.12
2022-12-11T14:20:01.061Z,2.31
2022-12-11T14:22:33.365Z,2.52
2022-12-11T14:25:22.411Z,2.65
2022-12-11T14:27:56.402Z,2.88
2022-12-11T14:30:31.267Z,2.96
2022-12-11T14:33:06.420Z,3.33
2022-12-11T14:35:43.073Z,4.02
2022-12-11T14:38:25.628Z,4.47
2022-12-11T14:41:01.068Z,4.35
2022-12-11T14:43:37.737Z,3.11
2022-12-11T14:46:15.642Z,1.90
2022-12-11T14:48:59.074Z,1.01
2022-12-11T14:51:36.040Z,0.31
2022-12-11T14:54:09.819Z,0.25
2022-12-11T14:56:42.564Z,1.73
2022-12-11T14:59:26.990Z,3.10
2022-12-11T15:02:23.105Z,4.05
2022-12-11T15:05:08.922Z,4.63
2022-12-11T15:07:41.763Z,4.97
2022-12-11T15:10:32.518Z,4.85
2022-12-11T15:13:05.956Z,3.56
2022-12-11T15:15:46.243Z,2.41
2022-12-11T15:18:23.834Z,1.45
2022-12-11T15:20:59.043Z,0.74
2022-12-11T15:23:32.228Z,0.54
2022-12-11T15:26:05.273Z,1.83
2022-12-11T15:28:39.374Z,3.10
2022-12-11T15:31:28.026Z,3.92
2022-12-11T15:34:00.973Z,4.43
2022-12-11T15:36:37.006Z,4.67
2022-12-11T15:39:10.243Z,4.55
2022-12-11T15:41:44.633Z,3.41
2022-12-11T15:44:22.738Z,2.24
2022-12-11T15:46:54.936Z,1.28
2022-12-11T15:49:27.217Z,0.61
2022-12-11T15:51:59.334Z,0.45
2022-12-11T15:54:31.943Z,1.74
2022-12-11T15:57:08.973Z,3.02
2022-12-11T15:59:41.517Z,3.80
2022-12-11T16:02:14.974Z,4.21
2022-12-11T16:04:47.323Z,4.61
2022-12-11T16:07:22.500Z,4.62
2022-12-11T16:09:55.093Z,3.40
2022-12-11T16:12:27.418Z,2.21
2022-12-11T16:15:01.283Z,1.26
2022-12-11T16:17:33.623Z,0.84
2022-12-11T16:20:06.914Z,1.87
2022-12-11T16:22:39.641Z,2.92
2022-12-11T16:25:14.549Z,3.67
2022-12-11T16:27:47.170Z,4.16
2022-12-11T16:30:19.530Z,4.17
2022-12-11T16:32:52.105Z,3.03
2022-12-11T16:35:24.735Z,1.82
2022-12-11T16:37:57.423Z,0.93
2022-12-11T16:40:29.728Z,0.60
2022-12-11T16:43:01.921Z,1.69
2022-12-11T16:45:34.648Z,2.78
2022-12-11T16:48:07.724Z,3.47
2022-12-11T16:50:42.413Z,3.93
2022-12-11T16:53:14.844Z,4.30
2022-12-11T16:55:47.228Z,4.29
2022-12-11T16:58:20.325Z,3.12
2022-12-11T17:00:52.859Z,1.90
2022-12-11T17:03:25.151Z,0.96
2022-12-11T17:05:58.110Z,0.57
2022-12-11T17:08:30.434Z,1.64
2022-12-11T17:11:05.651Z,2.77
2022-12-11T17:13:38.081Z,3.50
2022-12-11T17:16:12.303Z,4.02
2022-12-11T17:18:45.078Z,4.09
2022-12-11T17:21:19.089Z,2.96
2022-12-11T17:23:52.965Z,1.70
2022-12-11T17:26:25.620Z,0.77
2022-12-11T17:28:58.950Z,0.47
2022-12-11T17:31:31.302Z,1.52
2022-12-11T17:34:03.761Z,2.72
2022-12-11T17:36:36.223Z,3.52
2022-12-11T17:39:09.077Z,4.06
2022-12-11T17:41:41.376Z,4.01
2022-12-11T17:44:13.811Z,2.89
2022-12-11T17:46:46.085Z,1.63
2022-12-11T17:49:18.341Z,0.70
2022-12-11T17:51:55.468Z,0.37
2022-12-11T17:54:27.821Z,1.50
2022-12-11T17:57:00.312Z,2.53
2022-12-11T17:59:32.718Z,3.22
2022-12-11T18:02:05.251Z,3.71
2022-12-11T18:04:38.583Z,3.77
2022-12-11T18:07:10.731Z,2.74
2022-12-11T18:09:44.587Z,1.52
2022-12-11T18:12:17.061Z,0.61
2022-12-11T18:14:49.577Z,0.29
2022-12-11T18:17:22.425Z,1.44
2022-12-11T18:19:54.824Z,2.71
2022-12-11T18:22:28.825Z,3.55
2022-12-11T18:25:05.075Z,4.09
2022-12-11T18:27:42.100Z,4.12
2022-12-11T18:30:16.333Z,2.87
2022-12-11T18:32:48.774Z,1.65
2022-12-11T18:35:21.701Z,0.78
2022-12-11T18:37:54.064Z,0.42
2022-12-11T18:40:31.242Z,1.56
2022-12-11T18:43:03.505Z,2.70
2022-12-11T18:45:35.897Z,3.46
2022-12-11T18:48:11.389Z,3.95
2022-12-11T18:50:48.584Z,4.09
2022-12-11T18:53:21.181Z,3.20
2022-12-11T18:55:58.593Z,2.00
2022-12-11T18:58:32.619Z,0.96
2022-12-11T19:01:10.701Z,0.25
2022-12-11T19:03:43.500Z,0.14
2022-12-11T19:06:18.248Z,1.44
2022-12-11T19:08:50.973Z,2.60
2022-12-11T19:11:25.602Z,3.25
2022-12-11T19:13:59.068Z,3.75
2022-12-11T19:16:33.996Z,4.02
2022-12-11T19:19:09.981Z,4.04
2022-12-11T19:21:43.418Z,2.94
2022-12-11T19:24:19.192Z,1.80
2022-12-11T19:26:52.198Z,0.87
2022-12-11T19:29:32.554Z,0.51
2022-12-11T19:32:06.334Z,1.59
2022-12-11T19:34:39.622Z,2.64
2022-12-11T19:37:12.243Z,3.37
2022-12-11T19:39:44.942Z,3.91
2022-12-11T19:42:17.314Z,4.36
2022-12-11T19:44:49.483Z,4.39
2022-12-11T19:47:21.718Z,3.20
2022-12-11T19:49:54.776Z,1.90
2022-12-11T19:52:28.670Z,0.87
2022-12-11T19:55:05.896Z,0.40
2022-12-11T19:57:38.591Z,1.28
2022-12-11T20:00:12.744Z,2.33
2022-12-11T20:02:45.243Z,3.03
2022-12-11T20:05:17.994Z,3.47
2022-12-11T20:07:50.857Z,3.80
2022-12-11T20:10:23.331Z,3.72
2022-12-11T20:12:56.761Z,2.56
2022-12-11T20:15:30.785Z,1.38
2022-12-11T20:18:04.278Z,0.45
2022-12-11T20:20:36.593Z,0.15
2022-12-11T20:23:10.578Z,1.43
2022-12-11T20:25:43.341Z,2.65
2022-12-11T20:28:15.722Z,3.43
2022-12-11T20:30:50.094Z,4.06
2022-12-11T20:33:22.681Z,4.03
2022-12-11T20:35:55.269Z,2.87
2022-12-11T20:38:32.816Z,1.77
2022-12-11T20:41:07.348Z,0.84
2022-12-11T20:43:39.973Z,0.46
2022-12-11T20:46:15.107Z,1.48
2022-12-11T20:48:48.179Z,2.44
2022-12-11T20:51:25.990Z,2.98
2022-12-11T20:53:59.858Z,3.42
2022-12-11T20:56:33.692Z,3.75
2022-12-11T20:59:05.986Z,4.02
2022-12-11T21:01:38.187Z,4.05
2022-12-11T21:04:10.882Z,2.91
2022-12-11T21:06:43.092Z,1.64
2022-12-11T21:09:17.878Z,0.71
2022-12-11T21:11:50.756Z,0.36
2022-12-11T21:14:23.181Z,1.45
2022-12-11T21:16:55.591Z,2.56
2022-12-11T21:19:28.236Z,3.22
2022-12-11T21:22:00.767Z,3.64
2022-12-11T21:24:33.193Z,3.95
2022-12-11T21:27:05.641Z,3.98
2022-12-11T21:29:38.064Z,2.88
2022-12-11T21:32:10.565Z,1.68
2022-12-11T21:34:42.929Z,0.69
2022-12-11T21:37:15.146Z,0.28
2022-12-11T21:39:47.440Z,1.14
2022-12-11T21:42:20.103Z,2.09
2022-12-11T21:47:44.775Z,3.16
2022-12-11T21:50:17.144Z,3.46
2022-12-11T21:52:49.478Z,3.62
2022-12-11T21:55:21.781Z,3.47
2022-12-11T21:57:54.729Z,2.33
2022-12-11T22:00:28.288Z,1.18
2022-12-11T22:03:00.562Z,0.35
2022-12-11T22:05:33.874Z,0.01
2022-12-11T22:08:07.196Z,0.83
2022-12-11T22:10:39.541Z,1.82
2022-12-11T22:13:11.736Z,2.64
2022-12-11T22:15:43.989Z,3.26
2022-12-11T22:18:16.674Z,3.84
2022-12-11T22:20:49.519Z,4.13
2022-12-11T22:23:23.981Z,3.32
2022-12-11T22:25:56.894Z,2.03
2022-12-11T22:28:29.279Z,0.97
2022-12-11T22:31:02.297Z,0.15
2022-12-11T22:33:34.773Z,-0.14
2022-12-11T22:36:08.007Z,0.89
2022-12-11T22:38:40.721Z,2.06
2022-12-11T22:41:22.184Z,2.86
2022-12-11T22:43:55.649Z,3.23
2022-12-11T22:46:30.830Z,3.54
2022-12-11T22:49:03.251Z,3.39
2022-12-11T22:51:35.755Z,2.22
2022-12-11T22:54:08.236Z,1.02
2022-12-11T22:56:41.536Z,0.14
2022-12-11T22:59:13.846Z,-0.21
2022-12-11T23:01:46.370Z,0.78
2022-12-11T23:04:18.651Z,1.86
2022-12-11T23:06:51.456Z,2.66
2022-12-11T23:09:24.501Z,3.24
2022-12-11T23:11:58.665Z,3.66
2022-12-11T23:14:31.029Z,3.59
2022-12-11T23:17:03.192Z,2.47
2022-12-11T23:19:36.518Z,1.31
2022-12-11T23:22:09.227Z,0.35
2022-12-11T23:24:41.878Z,-0.06
2022-12-11T23:27:14.494Z,0.89
2022-12-11T23:29:46.966Z,1.69
2022-12-11T23:32:19.253Z,2.16
2022-12-11T23:34:52.176Z,2.64
2022-12-11T23:37:24.739Z,3.27
2022-12-11T23:39:57.032Z,3.65
2022-12-11T23:42:29.519Z,3.61
2022-12-11T23:45:02.386Z,2.50
2022-12-11T23:47:34.699Z,1.36
2022-12-11T23:50:08.451Z,0.43
2022-12-11T23:52:40.755Z,0.12
2022-12-11T23:55:14.061Z,1.11
2022-12-11T23:57:46.507Z,2.01
